Time;durP1;ratioP1;P1;durP2;ratioP2;P2;SDS_P1;SDS_P2;PMS_P1;PMS_P2;Temp;Humidity;BMP_temperature;BMP_pressure;BME280_temperature;BME280_humidity;BME280_pressure;Samples;Min_cycle;Max_cycle;Signal;HPM_P1;HPM_P2
2022/09/20 00:01:07;;;;;;;16.85;1.60;;;11.00;99.90;;;;;;5112388;27;36949;-58
2022/09/20 00:03:35;;;;;;;10.02;1.83;;;11.00;99.90;;;;;;5111846;27;39109;-60
2022/09/20 00:06:04;;;;;;;9.40;1.40;;;10.90;99.90;;;;;;5113283;27;37671;-60
2022/09/20 00:08:33;;;;;;;7.53;1.17;;;10.90;99.90;;;;;;5113811;27;37762;-60
2022/09/20 00:11:02;;;;;;;7.90;1.17;;;10.90;99.90;;;;;;5112480;27;40198;-60
2022/09/20 00:13:29;;;;;;;6.20;1.10;;;10.90;99.90;;;;;;5111553;27;37888;-60
2022/09/20 00:15:57;;;;;;;7.72;1.02;;;10.90;99.90;;;;;;5112058;27;37024;-60
2022/09/20 00:18:24;;;;;;;8.60;1.42;;;10.80;99.90;;;;;;5113405;27;38564;-60
2022/09/20 00:20:52;;;;;;;9.43;1.60;;;10.80;99.90;;;;;;5111470;27;38283;-60
2022/09/20 00:23:19;;;;;;;6.85;1.33;;;10.80;99.90;;;;;;5111679;27;37542;-58
2022/09/20 00:25:56;;;;;;;2.88;0.77;;;10.80;99.90;;;;;;5111231;27;37394;-58
2022/09/20 00:28:24;;;;;;;7.75;1.40;;;10.80;99.90;;;;;;5109205;27;37589;-58
2022/09/20 00:30:51;;;;;;;5.88;1.67;;;10.80;99.90;;;;;;5112917;27;37989;-58
2022/09/20 00:33:19;;;;;;;9.50;1.80;;;10.80;99.90;;;;;;5110520;27;37541;-58
2022/09/20 00:35:45;;;;;;;10.68;1.42;;;10.80;99.90;;;;;;5112449;27;35559;-58
2022/09/20 00:38:13;;;;;;;8.43;1.15;;;10.80;99.90;;;;;;5112547;27;37694;-58
2022/09/20 00:40:41;;;;;;;5.30;1.00;;;10.80;99.90;;;;;;5111882;27;38784;-58
2022/09/20 00:43:14;;;;;;;7.70;1.30;;;10.80;99.90;;;;;;5111541;27;37878;-58
2022/09/20 00:45:44;;;;;;;9.32;1.40;;;10.80;99.90;;;;;;5112155;27;37794;-58
2022/09/20 00:48:15;;;;;;;5.22;1.10;;;10.80;99.90;;;;;;5111242;27;36267;-58
2022/09/20 00:50:45;;;;;;;7.05;1.50;;;10.80;99.90;;;;;;5111303;27;38132;-58
2022/09/20 00:53:18;;;;;;;5.75;1.10;;;10.70;99.90;;;;;;5111985;27;38109;-58
2022/09/20 00:55:49;;;;;;;10.30;1.53;;;10.80;99.90;;;;;;5109208;27;36677;-58
2022/09/20 00:58:19;;;;;;;7.80;1.65;;;10.80;99.90;;;;;;5110652;27;38122;-58
2022/09/20 01:00:48;;;;;;;8.95;1.15;;;10.70;99.90;;;;;;5110965;27;38227;-58
2022/09/20 01:03:21;;;;;;;9.18;1.40;;;10.70;99.90;;;;;;5111753;27;38329;-58
2022/09/20 01:05:50;;;;;;;7.30;1.10;;;10.70;99.90;;;;;;5111458;27;37643;-58
2022/09/20 01:08:18;;;;;;;7.22;1.15;;;10.70;99.90;;;;;;5112417;27;36315;-58
2022/09/20 01:10:47;;;;;;;7.60;0.98;;;10.70;99.90;;;;;;5111118;27;36951;-58
2022/09/20 01:13:14;;;;;;;8.25;1.17;;;10.60;99.90;;;;;;5111442;27;34992;-58
2022/09/20 01:15:46;;;;;;;7.07;1.08;;;10.60;99.90;;;;;;5111348;27;36358;-60
2022/09/20 01:18:14;;;;;;;10.63;1.10;;;10.60;99.90;;;;;;5111726;27;37490;-60
2022/09/20 01:20:45;;;;;;;5.90;0.95;;;10.50;99.90;;;;;;5111100;27;38199;-60
2022/09/20 01:23:30;;;;;;;6.30;0.90;;;10.50;99.90;;;;;;5111625;27;38512;-60
2022/09/20 01:26:25;;;;;;;5.65;0.90;;;10.50;99.90;;;;;;5111805;27;38024;-61
2022/09/20 01:29:03;;;;;;;7.43;1.20;;;10.40;99.90;;;;;;5097864;27;37677;-60
2022/09/20 01:31:34;;;;;;;8.07;1.13;;;10.40;99.90;;;;;;5110694;27;39001;-60
2022/09/20 01:34:07;;;;;;;7.30;1.50;;;10.30;99.90;;;;;;5110377;27;37807;-61
2022/09/20 01:36:38;;;;;;;7.75;1.27;;;10.30;99.90;;;;;;5112239;27;36316;-61
2022/09/20 01:39:11;;;;;;;7.25;1.20;;;10.20;99.90;;;;;;5112568;27;36235;-60
2022/09/20 01:41:43;;;;;;;9.48;1.60;;;10.20;99.90;;;;;;5112170;27;38907;-60
2022/09/20 01:44:19;;;;;;;13.48;1.98;;;10.20;99.90;;;;;;5111201;27;38579;-60
2022/09/20 01:46:50;;;;;;;6.28;1.02;;;10.10;99.90;;;;;;5109949;27;35297;-61
2022/09/20 01:49:29;;;;;;;8.07;1.17;;;10.10;99.90;;;;;;5112813;27;36297;-61
2022/09/20 01:52:27;;;;;;;5.40;0.80;;;10.10;99.90;;;;;;5115092;27;38181;-60
2022/09/20 01:55:35;;;;;;;5.43;0.95;;;10.10;99.90;;;;;;5082736;27;36752;-58
2022/09/20 01:58:52;;;;;;;4.45;1.00;;;10.00;99.90;;;;;;5115147;27;35338;-58
2022/09/20 02:01:53;;;;;;;8.68;1.25;;;10.00;99.90;;;;;;5019460;28;40252;-58
2022/09/20 02:04:53;;;;;;;3.38;0.80;;;10.10;99.90;;;;;;5114698;27;38147;-58
2022/09/20 02:07:47;;;;;;;5.72;0.90;;;10.10;99.90;;;;;;5111719;27;36177;-60
2022/09/20 02:10:35;;;;;;;3.78;0.80;;;10.00;99.90;;;;;;5114918;27;36677;-60
2022/09/20 02:13:06;;;;;;;8.88;1.08;;;10.00;99.90;;;;;;5114837;27;36291;-58
2022/09/20 02:15:52;;;;;;;4.90;0.85;;;10.00;99.90;;;;;;5114654;27;38262;-60
2022/09/20 02:18:39;;;;;;;7.07;1.08;;;9.90;99.90;;;;;;5114540;27;38034;-57
2022/09/20 02:21:14;;;;;;;6.70;1.30;;;9.90;99.90;;;;;;5113444;27;36424;-58
2022/09/20 02:23:51;;;;;;;7.65;1.20;;;10.00;99.90;;;;;;5114570;27;37435;-60
2022/09/20 02:26:33;;;;;;;9.57;1.75;;;10.00;99.90;;;;;;5114119;27;39061;-60
2022/09/20 02:29:08;;;;;;;4.60;0.90;;;9.90;99.90;;;;;;5111631;27;37943;-58
2022/09/20 02:32:12;;;;;;;4.82;0.88;;;10.00;99.90;;;;;;5113244;27;37773;-60
2022/09/20 02:35:14;;;;;;;11.27;1.52;;;10.00;99.90;;;;;;5076435;27;40447;-61
2022/09/20 02:38:01;;;;;;;4.38;0.70;;;10.00;99.90;;;;;;5114607;27;37023;-60
2022/09/20 02:40:45;;;;;;;5.85;1.08;;;10.00;99.90;;;;;;5114312;27;37767;-60
2022/09/20 02:43:21;;;;;;;6.60;0.90;;;10.10;99.90;;;;;;5114158;27;36475;-60
2022/09/20 02:45:54;;;;;;;10.57;1.83;;;10.10;99.90;;;;;;5113806;27;37738;-58
2022/09/20 02:48:30;;;;;;;9.30;1.35;;;10.10;99.90;;;;;;5114018;27;38545;-60
2022/09/20 02:51:06;;;;;;;6.47;1.15;;;10.20;99.90;;;;;;5113645;27;36403;-60
2022/09/20 02:53:43;;;;;;;7.18;1.10;;;10.20;99.90;;;;;;5114536;27;37483;-58
2022/09/20 02:56:22;;;;;;;4.72;0.98;;;10.20;99.90;;;;;;5111331;27;36422;-61
2022/09/20 02:59:00;;;;;;;5.97;0.95;;;10.20;99.90;;;;;;5113909;27;38675;-58
2022/09/20 03:01:38;;;;;;;11.02;1.13;;;10.20;99.90;;;;;;5113551;27;38307;-58
2022/09/20 03:04:21;;;;;;;6.10;1.02;;;10.20;99.90;;;;;;5113203;27;36734;-58
2022/09/20 03:06:55;;;;;;;7.43;1.35;;;10.20;99.90;;;;;;5113800;27;38740;-60
2022/09/20 03:09:32;;;;;;;10.77;1.38;;;10.20;99.90;;;;;;5112564;27;39792;-61
2022/09/20 03:12:10;;;;;;;8.60;1.20;;;10.20;99.90;;;;;;5112237;27;36798;-58
2022/09/20 03:14:40;;;;;;;9.98;1.35;;;10.20;99.90;;;;;;5114169;27;36468;-60
2022/09/20 03:17:20;;;;;;;7.30;0.98;;;10.20;99.90;;;;;;5113574;27;37577;-60
2022/09/20 03:20:07;;;;;;;3.58;0.80;;;10.20;99.90;;;;;;5114525;27;37881;-61
2022/09/20 03:22:44;;;;;;;3.92;1.40;;;10.20;99.90;;;;;;5110183;27;37382;-58
2022/09/20 03:25:34;;;;;;;6.13;1.00;;;10.20;99.90;;;;;;5112529;27;36613;-58
2022/09/20 03:28:10;;;;;;;7.22;0.98;;;10.30;99.90;;;;;;5114476;27;39839;-58
2022/09/20 03:30:50;;;;;;;8.45;1.30;;;10.30;99.90;;;;;;5111898;27;38153;-58
2022/09/20 03:33:28;;;;;;;3.58;1.13;;;10.40;99.90;;;;;;5112412;27;36626;-58
2022/09/20 03:36:08;;;;;;;7.00;1.00;;;10.50;99.90;;;;;;5114104;27;35431;-60
2022/09/20 03:38:54;;;;;;;5.65;1.00;;;10.40;99.90;;;;;;5110884;27;40255;-61
2022/09/20 03:41:55;;;;;;;6.75;1.20;;;10.50;99.90;;;;;;5113413;27;38444;-61
2022/09/20 03:44:45;;;;;;;5.15;0.82;;;10.50;99.90;;;;;;5063885;27;38788;-60
2022/09/20 03:47:30;;;;;;;6.53;0.90;;;10.60;99.90;;;;;;5113923;27;36579;-58
2022/09/20 03:50:16;;;;;;;6.78;1.15;;;10.60;99.90;;;;;;5113239;27;38126;-58
2022/09/20 03:53:00;;;;;;;5.28;0.95;;;10.70;99.90;;;;;;5113360;27;39176;-60
2022/09/20 03:55:45;;;;;;;5.32;1.05;;;10.80;99.90;;;;;;5112203;27;36481;-61
2022/09/20 03:58:29;;;;;;;7.13;1.33;;;10.80;99.90;;;;;;5112671;27;37590;-61
2022/09/20 04:01:11;;;;;;;6.65;1.00;;;10.80;99.90;;;;;;5112975;27;38305;-61
2022/09/20 04:03:49;;;;;;;8.75;1.60;;;10.90;99.90;;;;;;5113681;27;38952;-61
2022/09/20 04:06:40;;;;;;;9.18;1.50;;;11.00;99.90;;;;;;5111575;27;38444;-60
2022/09/20 04:09:46;;;;;;;7.63;0.85;;;11.00;99.90;;;;;;5110630;27;36520;-60
2022/09/20 04:12:21;;;;;;;7.03;1.20;;;11.00;99.90;;;;;;5111437;27;37476;-61
2022/09/20 04:14:58;;;;;;;5.13;0.88;;;11.00;99.90;;;;;;5112164;27;37986;-61
2022/09/20 04:17:34;;;;;;;7.20;1.30;;;11.00;99.90;;;;;;5112965;27;37849;-60
2022/09/20 04:20:06;;;;;;;7.40;1.20;;;11.00;99.90;;;;;;5112888;27;36748;-60
2022/09/20 04:22:35;;;;;;;5.07;0.90;;;11.10;99.90;;;;;;5111917;27;37944;-60
2022/09/20 04:25:13;;;;;;;6.03;1.33;;;11.10;99.90;;;;;;5112262;27;38615;-61
2022/09/20 04:27:46;;;;;;;4.60;1.00;;;11.10;99.90;;;;;;5113116;27;37743;-61
2022/09/20 04:30:19;;;;;;;11.43;1.10;;;11.10;99.90;;;;;;5111735;27;35249;-60
2022/09/20 04:32:54;;;;;;;3.80;0.98;;;11.10;99.90;;;;;;5110716;27;37620;-61
2022/09/20 04:38:19;;;;;;;11.10;2.17;;;11.10;99.90;;;;;;5111561;27;38767;-60
2022/09/20 04:41:04;;;;;;;8.05;1.10;;;11.10;99.90;;;;;;5110297;27;36593;-61
2022/09/20 04:43:55;;;;;;;5.05;1.13;;;11.20;99.90;;;;;;5111246;27;38552;-60
2022/09/20 04:46:45;;;;;;;5.97;1.00;;;11.10;99.90;;;;;;5111672;27;37732;-58
2022/09/20 04:49:38;;;;;;;5.57;0.77;;;11.10;99.90;;;;;;5112070;27;37427;-58
2022/09/20 04:52:36;;;;;;;8.13;1.63;;;11.20;99.90;;;;;;5110085;27;37323;-58
2022/09/20 04:55:39;;;;;;;6.72;0.88;;;11.20;99.90;;;;;;5112875;27;39165;-58
2022/09/20 04:58:36;;;;;;;3.17;0.80;;;11.20;99.90;;;;;;5108361;27;39403;-58
2022/09/20 05:01:36;;;;;;;7.07;0.95;;;11.10;99.90;;;;;;5110751;27;37595;-58
2022/09/20 05:04:44;;;;;;;3.85;0.90;;;11.20;99.90;;;;;;5110871;27;35508;-57
2022/09/20 05:07:42;;;;;;;4.95;1.30;;;11.20;99.90;;;;;;5112590;27;38505;-60
2022/09/20 05:10:32;;;;;;;4.70;1.20;;;11.20;99.90;;;;;;5111238;27;38130;-60
2022/09/20 05:13:13;;;;;;;4.93;0.85;;;11.20;99.90;;;;;;5111603;27;38063;-61
2022/09/20 05:15:50;;;;;;;6.70;1.05;;;11.20;99.90;;;;;;5111097;27;36357;-60
2022/09/20 05:18:48;;;;;;;3.70;0.98;;;11.20;99.90;;;;;;5110336;27;36327;-60
2022/09/20 05:21:34;;;;;;;4.82;0.77;;;11.30;99.90;;;;;;5107699;27;38469;-60
2022/09/20 05:24:17;;;;;;;5.10;1.00;;;11.20;99.90;;;;;;5111544;27;39308;-60
2022/09/20 05:26:55;;;;;;;3.25;0.90;;;11.30;99.90;;;;;;5111103;27;36835;-60
2022/09/20 05:29:29;;;;;;;6.93;1.23;;;11.30;99.90;;;;;;5110050;27;37609;-60
2022/09/20 05:32:06;;;;;;;8.38;1.73;;;11.30;99.90;;;;;;5111230;27;40276;-60
2022/09/20 05:34:42;;;;;;;4.65;0.85;;;11.30;99.90;;;;;;5109533;27;37670;-60
2022/09/20 05:37:22;;;;;;;2.83;0.95;;;11.30;99.90;;;;;;5108628;27;35543;-60
2022/09/20 05:39:57;;;;;;;8.20;1.42;;;11.40;99.90;;;;;;5111000;27;37619;-60
2022/09/20 05:42:38;;;;;;;6.03;1.33;;;11.40;99.90;;;;;;5111910;27;37981;-60
2022/09/20 05:45:26;;;;;;;5.85;1.10;;;11.40;99.90;;;;;;5109932;27;38622;-58
2022/09/20 05:47:59;;;;;;;6.53;1.10;;;11.50;99.90;;;;;;5108934;27;35921;-58
2022/09/20 05:50:46;;;;;;;5.75;0.90;;;11.50;99.90;;;;;;5109586;27;38533;-60
2022/09/20 05:53:50;;;;;;;6.93;1.10;;;11.50;99.90;;;;;;5108853;27;38178;-60
2022/09/20 05:56:28;;;;;;;3.85;1.10;;;11.50;99.90;;;;;;5109692;27;38219;-58
2022/09/20 05:59:13;;;;;;;7.80;1.02;;;11.50;99.90;;;;;;5109937;27;37022;-58
2022/09/20 06:01:45;;;;;;;4.50;0.80;;;11.50;99.90;;;;;;5108398;27;36286;-58
2022/09/20 06:04:17;;;;;;;5.82;0.98;;;11.40;99.90;;;;;;5110464;27;38727;-58
2022/09/20 06:06:55;;;;;;;6.45;0.80;;;11.50;99.90;;;;;;5110330;27;20112;-58
2022/09/20 06:09:41;;;;;;;4.43;0.80;;;11.50;99.90;;;;;;5109431;27;37346;-60
2022/09/20 06:12:20;;;;;;;9.10;1.73;;;11.50;99.90;;;;;;5110396;27;38390;-60
2022/09/20 06:14:58;;;;;;;5.63;1.00;;;11.50;99.90;;;;;;5110143;27;37651;-58
2022/09/20 06:17:33;;;;;;;6.47;1.30;;;11.50;99.90;;;;;;5108674;27;37319;-58
2022/09/20 06:20:15;;;;;;;8.73;1.55;;;11.50;99.90;;;;;;5110012;27;35417;-57
2022/09/20 06:22:46;;;;;;;4.35;0.93;;;11.50;99.90;;;;;;5108756;27;38500;-58
2022/09/20 06:25:20;;;;;;;7.10;1.25;;;11.60;99.90;;;;;;5108391;27;38085;-58
2022/09/20 06:27:52;;;;;;;5.40;0.95;;;11.60;99.90;;;;;;5108371;27;38589;-58
2022/09/20 06:30:23;;;;;;;6.80;1.10;;;11.60;99.90;;;;;;5108498;27;38496;-60
2022/09/20 06:32:55;;;;;;;8.15;1.25;;;11.60;99.90;;;;;;5109278;27;36375;-60
2022/09/20 06:35:25;;;;;;;6.40;1.38;;;11.60;99.90;;;;;;5111557;27;38029;-60
2022/09/20 06:43:35;;;;;;;3.25;1.02;;;11.70;99.90;;;;;;5113454;27;38046;-58
2022/09/20 06:46:03;;;;;;;4.50;1.23;;;11.70;99.90;;;;;;5111808;27;39138;-60
2022/09/20 06:48:30;;;;;;;6.32;0.90;;;11.70;99.90;;;;;;5112102;27;38599;-58
2022/09/20 06:50:59;;;;;;;5.18;0.90;;;11.80;99.90;;;;;;5113590;27;38242;-58
2022/09/20 06:53:30;;;;;;;13.05;2.33;;;11.80;99.90;;;;;;5112974;27;38324;-58
2022/09/20 06:55:59;;;;;;;7.63;1.30;;;11.80;99.90;;;;;;5113547;27;38486;-58
2022/09/20 06:58:27;;;;;;;7.70;0.90;;;11.80;99.90;;;;;;5112823;27;36865;-60
2022/09/20 07:00:54;;;;;;;5.25;1.15;;;11.80;99.90;;;;;;5113367;27;36372;-58
2022/09/20 07:03:21;;;;;;;7.22;1.50;;;11.80;99.90;;;;;;5112326;27;39483;-60
2022/09/20 07:05:49;;;;;;;7.72;0.90;;;11.90;99.90;;;;;;5113109;27;36881;-60
2022/09/20 07:08:16;;;;;;;5.97;1.00;;;11.90;99.90;;;;;;5113122;27;37628;-60
2022/09/20 07:10:44;;;;;;;5.57;1.15;;;12.00;99.90;;;;;;5112095;27;37485;-60
2022/09/20 07:13:13;;;;;;;5.15;1.02;;;12.00;99.90;;;;;;5111788;27;36380;-60
2022/09/20 07:15:40;;;;;;;6.60;0.80;;;12.00;99.90;;;;;;5112252;27;38197;-60
2022/09/20 07:18:08;;;;;;;4.65;0.90;;;12.00;99.90;;;;;;5112593;27;36623;-60
2022/09/20 07:20:35;;;;;;;4.40;0.85;;;12.10;99.90;;;;;;5112948;27;36458;-60
2022/09/20 07:23:02;;;;;;;4.45;0.85;;;12.20;99.90;;;;;;5112627;27;36412;-60
2022/09/20 07:25:30;;;;;;;3.85;1.00;;;12.20;99.90;;;;;;5112637;27;38266;-60
2022/09/20 07:27:58;;;;;;;6.32;0.73;;;12.20;99.90;;;;;;5111860;27;38999;-60
2022/09/20 07:30:26;;;;;;;4.72;1.08;;;12.30;99.90;;;;;;5112535;27;37206;-58
2022/09/20 07:32:53;;;;;;;6.82;1.75;;;12.30;99.90;;;;;;5111930;27;37822;-58
2022/09/20 07:35:21;;;;;;;5.30;0.85;;;12.30;99.90;;;;;;5113053;27;38528;-58
2022/09/20 07:37:48;;;;;;;3.97;0.98;;;12.30;99.90;;;;;;5112298;27;37597;-60
2022/09/20 07:40:16;;;;;;;6.13;1.02;;;12.30;99.90;;;;;;5112202;27;36244;-60
2022/09/20 07:42:44;;;;;;;4.85;0.93;;;12.30;99.90;;;;;;5111060;27;37745;-60
2022/09/20 07:45:12;;;;;;;7.70;1.17;;;12.30;99.90;;;;;;5111681;27;38755;-60
2022/09/20 07:47:43;;;;;;;6.82;0.90;;;12.40;99.90;;;;;;5112618;27;37805;-60
2022/09/20 07:50:10;;;;;;;6.78;1.17;;;12.40;99.90;;;;;;5112798;27;37529;-58
2022/09/20 07:52:38;;;;;;;7.97;1.17;;;12.50;99.90;;;;;;5112406;27;37372;-58
2022/09/20 07:55:06;;;;;;;3.90;0.90;;;12.50;99.90;;;;;;5111941;27;38100;-58
2022/09/20 07:57:36;;;;;;;6.65;1.00;;;12.60;99.90;;;;;;5110914;27;37624;-58
2022/09/20 08:00:05;;;;;;;7.32;1.05;;;12.60;99.90;;;;;;5111523;27;35336;-58
2022/09/20 08:02:33;;;;;;;5.97;1.02;;;12.70;99.90;;;;;;5110395;27;37632;-59
2022/09/20 08:05:01;;;;;;;5.55;0.90;;;12.70;99.90;;;;;;5111184;27;38558;-60
2022/09/20 08:07:29;;;;;;;5.75;1.23;;;12.80;99.90;;;;;;5112111;27;36690;-60
2022/09/20 08:09:56;;;;;;;5.30;1.48;;;12.80;99.90;;;;;;5112358;27;37596;-60
2022/09/20 08:12:24;;;;;;;7.82;0.90;;;12.90;99.90;;;;;;5111569;27;38585;-60
2022/09/20 08:14:52;;;;;;;3.00;0.60;;;13.00;99.90;;;;;;5110941;27;39506;-60
2022/09/20 08:17:19;;;;;;;4.18;1.23;;;13.00;99.90;;;;;;5111908;27;36031;-58
2022/09/20 08:19:47;;;;;;;5.10;0.82;;;13.10;99.90;;;;;;5111382;27;36956;-60
2022/09/20 08:22:15;;;;;;;4.22;1.00;;;13.10;99.90;;;;;;5111159;27;37446;-58
2022/09/20 08:24:43;;;;;;;7.35;0.93;;;13.20;99.90;;;;;;5111228;27;38186;-58
2022/09/20 08:27:12;;;;;;;13.13;1.20;;;13.20;99.90;;;;;;5111578;27;38743;-58
2022/09/20 08:29:39;;;;;;;6.72;1.88;;;13.30;99.90;;;;;;5110801;27;35314;-60
2022/09/20 08:32:06;;;;;;;5.30;1.10;;;13.40;99.90;;;;;;5110235;27;38510;-60
2022/09/20 08:34:34;;;;;;;6.47;1.00;;;13.50;99.90;;;;;;5110959;27;39379;-58
2022/09/20 08:37:01;;;;;;;6.30;0.90;;;13.50;99.90;;;;;;5111303;27;37431;-58
2022/09/20 08:39:30;;;;;;;7.97;1.95;;;13.70;99.90;;;;;;5111015;27;36597;-58
2022/09/20 08:42:01;;;;;;;7.07;0.93;;;13.70;99.90;;;;;;5111077;27;38910;-58
2022/09/20 08:44:32;;;;;;;5.05;1.02;;;13.80;99.90;;;;;;5110488;27;39158;-58
2022/09/20 08:47:08;;;;;;;7.03;1.45;;;13.90;99.90;;;;;;5111137;27;38338;-58
2022/09/20 08:49:37;;;;;;;9.35;1.48;;;14.00;99.90;;;;;;5110938;27;36280;-58
2022/09/20 08:52:04;;;;;;;5.35;1.30;;;14.20;99.90;;;;;;5110697;27;37496;-58
2022/09/20 08:54:35;;;;;;;4.78;0.95;;;14.20;99.90;;;;;;5110757;27;39067;-58
2022/09/20 08:57:05;;;;;;;3.22;0.75;;;14.20;99.90;;;;;;5110423;27;37994;-58
2022/09/20 08:59:33;;;;;;;5.93;0.80;;;14.20;99.90;;;;;;5109951;27;36413;-60
2022/09/20 09:02:01;;;;;;;8.10;1.10;;;14.30;99.90;;;;;;5110475;27;36270;-60
2022/09/20 09:04:35;;;;;;;6.78;0.90;;;14.30;99.90;;;;;;5110500;27;38407;-61
2022/09/20 09:07:03;;;;;;;5.43;0.80;;;14.40;99.90;;;;;;5111009;27;37687;-61
2022/09/20 09:09:33;;;;;;;4.10;0.75;;;14.50;99.90;;;;;;5111655;27;37567;-60
2022/09/20 09:12:02;;;;;;;6.22;0.80;;;14.50;99.90;;;;;;5110778;27;38515;-58
2022/09/20 09:14:53;;;;;;;7.53;1.02;;;14.50;99.90;;;;;;5110230;27;39132;-60
2022/09/20 09:17:23;;;;;;;4.78;1.15;;;14.60;99.90;;;;;;5110551;27;37765;-60
2022/09/20 09:19:52;;;;;;;9.90;1.40;;;14.70;99.90;;;;;;5110600;27;35332;-58
2022/09/20 09:22:23;;;;;;;3.55;0.55;;;14.70;99.90;;;;;;5110238;27;37513;-60
2022/09/20 09:25:22;;;;;;;8.05;0.80;;;14.70;99.90;;;;;;5110202;27;37673;-58
2022/09/20 09:27:59;;;;;;;4.82;0.88;;;14.80;99.40;;;;;;5110211;27;37505;-60
2022/09/20 09:30:30;;;;;;;2.72;0.75;;;15.00;99.10;;;;;;5110949;27;37359;-60
2022/09/20 09:33:16;;;;;;;5.05;0.73;;;15.00;99.00;;;;;;5109521;27;37388;-61
2022/09/20 09:35:44;;;;;;;5.65;1.10;;;15.10;97.90;;;;;;5110109;27;38658;-58
2022/09/20 09:38:20;;;;;;;2.75;0.60;;;15.00;98.20;;;;;;5110061;27;37614;-58
2022/09/20 09:40:52;;;;;;;5.43;0.80;;;15.00;97.40;;;;;;5109616;27;37633;-60
2022/09/20 09:43:26;;;;;;;5.35;0.75;;;15.10;97.20;;;;;;5110190;27;36381;-60
2022/09/20 09:45:54;;;;;;;5.82;0.70;;;15.10;96.80;;;;;;5110177;27;39167;-60
2022/09/20 09:48:25;;;;;;;7.03;0.98;;;15.10;96.70;;;;;;5110347;27;38036;-60
2022/09/20 09:51:09;;;;;;;4.53;0.68;;;15.00;96.40;;;;;;5109991;27;36929;-60
2022/09/20 09:53:38;;;;;;;6.95;1.23;;;15.00;96.80;;;;;;5109638;27;38578;-60
2022/09/20 09:56:28;;;;;;;5.65;0.75;;;15.00;96.80;;;;;;5109789;27;39427;-60
2022/09/20 09:59:19;;;;;;;6.80;1.63;;;15.00;96.00;;;;;;5104210;27;36545;-60
2022/09/20 10:01:55;;;;;;;3.58;0.60;;;15.00;96.20;;;;;;5110346;27;36964;-60
2022/09/20 10:04:31;;;;;;;4.28;0.63;;;15.20;95.90;;;;;;5110254;27;37443;-58
2022/09/20 10:07:06;;;;;;;5.75;0.95;;;15.40;96.20;;;;;;5109285;27;38066;-60
2022/09/20 10:09:50;;;;;;;7.80;0.95;;;15.60;96.70;;;;;;5111850;27;38171;-61
2022/09/20 10:12:32;;;;;;;3.45;1.08;;;15.70;96.20;;;;;;5114103;27;36738;-58
2022/09/20 10:15:15;;;;;;;5.30;0.77;;;15.70;96.50;;;;;;5114169;27;37005;-58
2022/09/20 10:17:54;;;;;;;4.47;0.73;;;15.80;95.70;;;;;;5113231;27;38841;-58
2022/09/20 10:20:35;;;;;;;6.20;0.93;;;15.80;95.60;;;;;;5113009;27;38578;-61
2022/09/20 10:23:18;;;;;;;6.80;1.23;;;15.80;95.20;;;;;;5113775;27;37552;-61
2022/09/20 10:25:53;;;;;;;5.05;0.80;;;15.90;95.00;;;;;;5113480;27;37698;-61
2022/09/20 10:28:34;;;;;;;3.75;1.25;;;16.00;95.00;;;;;;5112737;27;38342;-60
2022/09/20 10:31:10;;;;;;;4.95;0.98;;;15.90;94.80;;;;;;5113219;27;38581;-60
2022/09/20 10:33:51;;;;;;;5.40;0.85;;;15.80;94.40;;;;;;5114195;27;36928;-58
2022/09/20 10:36:26;;;;;;;3.55;0.88;;;15.70;95.00;;;;;;5113597;27;37401;-61
2022/09/20 10:39:00;;;;;;;5.65;1.20;;;15.70;94.90;;;;;;5113484;27;37875;-60
2022/09/20 10:44:45;;;;;;;5.97;0.93;;;15.70;94.90;;;;;;5113648;27;36708;-61
2022/09/20 10:47:18;;;;;;;5.95;0.80;;;15.90;95.50;;;;;;5113635;27;37252;-61
2022/09/20 10:49:57;;;;;;;6.10;1.08;;;16.20;95.70;;;;;;5113772;27;38678;-58
2022/09/20 10:52:48;;;;;;;3.85;0.70;;;16.50;95.00;;;;;;5113594;27;37602;-58
2022/09/20 10:55:39;;;;;;;6.68;0.63;;;16.60;93.90;;;;;;5112884;27;36557;-58
2022/09/20 10:58:53;;;;;;;5.18;0.90;;;16.40;93.70;;;;;;5110406;27;38626;-58
2022/09/20 11:01:28;;;;;;;4.63;1.13;;;16.30;93.60;;;;;;5112583;27;37915;-60
2022/09/20 11:04:25;;;;;;;7.00;0.77;;;16.20;94.00;;;;;;5109797;27;38064;-60
2022/09/20 11:07:01;;;;;;;5.50;1.00;;;16.00;93.50;;;;;;5112116;27;35432;-60
2022/09/20 11:09:35;;;;;;;5.40;0.80;;;15.80;93.70;;;;;;5111063;27;36884;-58
2022/09/20 11:12:11;;;;;;;4.18;1.02;;;15.70;93.40;;;;;;5111130;27;39459;-60
2022/09/20 11:14:43;;;;;;;7.70;1.73;;;15.60;93.80;;;;;;5110836;27;38472;-58
2022/09/20 11:17:19;;;;;;;8.02;1.10;;;15.70;93.70;;;;;;5111837;27;38348;-58
2022/09/20 11:19:56;;;;;;;10.40;1.25;;;15.80;93.30;;;;;;5111056;27;37890;-58
2022/09/20 11:22:30;;;;;;;7.00;0.98;;;15.90;92.10;;;;;;5110940;27;38799;-58
2022/09/20 11:25:02;;;;;;;5.47;0.70;;;16.20;91.90;;;;;;5111281;27;38599;-58
2022/09/20 11:27:32;;;;;;;2.35;0.70;;;16.30;90.80;;;;;;5111718;27;37136;-58
2022/09/20 11:30:04;;;;;;;5.07;1.15;;;16.50;90.10;;;;;;5111308;27;37369;-58
2022/09/20 11:32:38;;;;;;;4.90;0.68;;;16.50;88.10;;;;;;5110653;27;39515;-60
2022/09/20 11:35:24;;;;;;;7.40;1.13;;;16.50;89.80;;;;;;5111304;27;38090;-58
2022/09/20 11:38:01;;;;;;;6.57;1.05;;;16.30;89.40;;;;;;5110816;27;36707;-58
2022/09/20 11:40:32;;;;;;;4.50;1.00;;;16.20;90.40;;;;;;5110745;27;38417;-60
2022/09/20 11:43:05;;;;;;;6.63;1.02;;;16.30;90.60;;;;;;5110967;27;38023;-60
2022/09/20 11:45:33;;;;;;;4.35;0.68;;;16.50;90.40;;;;;;5110310;27;39345;-57
2022/09/20 11:48:03;;;;;;;4.60;0.77;;;16.70;89.20;;;;;;5111047;27;36691;-58
2022/09/20 11:50:57;;;;;;;5.78;0.93;;;16.90;88.40;;;;;;5111893;27;38434;-58
2022/09/20 11:53:39;;;;;;;5.32;0.60;;;17.00;86.40;;;;;;5097390;27;38776;-58
2022/09/20 11:56:14;;;;;;;7.70;1.05;;;17.00;83.40;;;;;;5111320;27;37551;-58
2022/09/20 11:58:47;;;;;;;4.57;0.70;;;17.00;83.20;;;;;;5110569;27;36468;-60
2022/09/20 12:01:15;;;;;;;4.70;1.02;;;16.90;81.90;;;;;;5110416;27;37899;-58
2022/09/20 12:03:49;;;;;;;4.75;0.82;;;16.90;83.10;;;;;;5110839;27;38223;-60
2022/09/20 12:06:28;;;;;;;5.65;1.20;;;17.00;83.80;;;;;;5109521;27;38764;-60
2022/09/20 12:08:57;;;;;;;5.38;1.00;;;17.10;84.80;;;;;;5109222;27;37352;-58
2022/09/20 12:11:30;;;;;;;3.35;1.23;;;17.20;87.40;;;;;;5108205;27;38189;-58
2022/09/20 12:14:04;;;;;;;4.57;0.57;;;17.20;86.40;;;;;;5110871;27;38241;-60
2022/09/20 12:16:42;;;;;;;6.43;1.02;;;17.10;84.30;;;;;;5110901;27;38403;-58
2022/09/20 12:19:13;;;;;;;4.63;0.73;;;16.90;83.70;;;;;;5111680;27;37236;-58
2022/09/20 12:22:26;;;;;;;3.03;0.50;;;16.70;83.60;;;;;;5111160;27;38631;-58
2022/09/20 12:25:27;;;;;;;3.58;0.75;;;16.60;82.40;;;;;;5110378;27;38171;-58
2022/09/20 12:27:57;;;;;;;5.13;0.60;;;16.50;85.70;;;;;;5110861;27;38915;-60
2022/09/20 12:30:25;;;;;;;3.80;0.52;;;16.50;84.90;;;;;;5111178;27;37511;-60
2022/09/20 12:32:56;;;;;;;3.45;0.60;;;16.50;85.90;;;;;;5109865;27;39113;-58
2022/09/20 12:35:56;;;;;;;2.35;0.50;;;16.50;85.40;;;;;;5111420;27;38349;-58
2022/09/20 12:38:30;;;;;;;5.50;0.80;;;16.60;84.90;;;;;;5104549;27;37920;-58
2022/09/20 12:40:57;;;;;;;;;;;16.70;85.50;;;;;;5110506;27;37330;-60
2022/09/20 12:43:27;;;;;;;5.70;1.08;;;16.70;83.60;;;;;;5111456;27;37905;-58
2022/09/20 12:45:55;;;;;;;3.03;0.57;;;16.70;85.60;;;;;;5110040;27;39351;-58
2022/09/20 12:48:23;;;;;;;5.68;0.65;;;16.50;85.10;;;;;;5111219;27;37200;-58
2022/09/20 12:54:04;;;;;;;3.60;0.50;;;16.30;84.90;;;;;;5109017;27;39152;-60
2022/09/20 12:56:37;;;;;;;1.65;0.40;;;16.20;83.30;;;;;;5109882;27;38834;-58
2022/09/20 12:59:07;;;;;;;3.35;0.60;;;16.00;84.70;;;;;;5109791;27;38875;-58
2022/09/20 13:01:38;;;;;;;2.13;0.40;;;16.00;85.30;;;;;;5109576;27;36642;-60
2022/09/20 13:04:52;;;;;;;5.47;0.50;;;16.00;85.40;;;;;;5108741;27;36299;-60
2022/09/20 13:07:43;;;;;;;5.85;0.82;;;16.00;85.90;;;;;;5094438;27;38090;-60
2022/09/20 13:10:26;;;;;;;4.78;1.00;;;16.10;87.30;;;;;;5108821;27;37825;-58
2022/09/20 13:12:59;;;;;;;6.07;0.70;;;16.10;89.40;;;;;;5108973;27;37489;-60
2022/09/20 13:15:26;;;;;;;4.68;0.50;;;16.30;88.90;;;;;;5108770;27;38650;-60
2022/09/20 13:17:59;;;;;;;5.65;0.63;;;16.30;88.90;;;;;;5108475;27;39864;-59
2022/09/20 13:20:30;;;;;;;3.10;0.77;;;16.40;89.80;;;;;;5109674;27;37686;-60
2022/09/20 13:22:58;;;;;;;10.18;0.98;;;16.40;90.90;;;;;;5108413;27;37863;-58
2022/09/20 13:25:28;;;;;;;8.75;1.13;;;16.40;91.90;;;;;;5108732;27;38744;-58
2022/09/20 13:28:03;;;;;;;8.50;1.00;;;16.30;92.20;;;;;;5109278;27;36790;-58
2022/09/20 13:30:31;;;;;;;6.32;1.08;;;16.20;92.60;;;;;;5109812;27;37517;-60
2022/09/20 13:33:16;;;;;;;5.60;0.98;;;16.10;93.00;;;;;;5108965;27;35385;-58
2022/09/20 13:35:46;;;;;;;5.78;0.90;;;16.00;93.10;;;;;;5107967;27;38627;-60
2022/09/20 13:38:19;;;;;;;2.60;0.90;;;16.00;93.80;;;;;;5108733;27;36640;-58
2022/09/20 13:40:48;;;;;;;5.60;0.88;;;16.00;93.60;;;;;;5108778;27;38679;-60
2022/09/20 13:43:27;;;;;;;7.20;1.13;;;16.00;93.80;;;;;;5109426;27;36334;-60
2022/09/20 13:45:56;;;;;;;5.65;0.90;;;15.90;93.40;;;;;;5109228;27;36359;-58
2022/09/20 13:48:27;;;;;;;7.13;1.08;;;15.90;93.60;;;;;;5109432;27;38150;-58